Time;durP1;ratioP1;P1;durP2;ratioP2;P2;SDS_P1;SDS_P2;PMS_P1;PMS_P2;Temp;Humidity;BMP_temperature;BMP_pressure;BME280_temperature;BME280_humidity;BME280_pressure;Samples;Min_cycle;Max_cycle;Signal;HPM_P1;HPM_P2
2021/03/29 00:01:28;;;;;;;8.00;2.27;;;;;;;;;;5117201;27;20479;-72
2021/03/29 00:03:55;;;;;;;13.63;2.60;;;;;;;;;;5118210;27;21029;-73
2021/03/29 00:06:24;;;;;;;8.73;2.03;;;;;;;;;;5117364;27;20458;-73
2021/03/29 00:08:51;;;;;;;5.93;2.27;;;;;;;;;;5131434;27;20450;-73
2021/03/29 00:11:18;;;;;;;8.37;2.43;;;;;;;;;;5138618;27;20721;-72
2021/03/29 00:13:46;;;;;;;6.67;1.83;;;;;;;;;;5138444;27;20492;-73
2021/03/29 00:16:14;;;;;;;4.83;2.10;;;;;;;;;;5139361;27;20447;-73
2021/03/29 00:18:42;;;;;;;5.03;2.10;;;;;;;;;;5139983;27;20454;-73
2021/03/29 00:21:09;;;;;;;6.47;2.50;;;;;;;;;;5139026;27;20547;-72
2021/03/29 00:23:36;;;;;;;7.00;2.30;;;;;;;;;;5139000;27;20458;-73
2021/03/29 00:26:05;;;;;;;9.07;2.67;;;;;;;;;;5136917;27;20846;-73
2021/03/29 00:28:32;;;;;;;4.70;2.57;;;;;;;;;;5138329;27;20702;-72
2021/03/29 00:30:59;;;;;;;6.03;2.27;;;;;;;;;;5138490;27;20511;-73
2021/03/29 00:33:27;;;;;;;6.90;2.47;;;;;;;;;;5137305;27;20442;-72
2021/03/29 00:35:56;;;;;;;7.07;2.00;;;;;;;;;;5134488;27;20462;-72
2021/03/29 00:38:23;;;;;;;6.77;2.13;;;;;;;;;;5117130;27;20466;-73
2021/03/29 00:40:51;;;;;;;8.50;2.77;;;;;;;;;;5117053;27;20739;-72
2021/03/29 00:43:19;;;;;;;6.33;2.30;;;;;;;;;;5116217;27;20881;-72
2021/03/29 00:45:47;;;;;;;7.93;2.60;;;;;;;;;;5115892;27;20499;-72
2021/03/29 00:48:14;;;;;;;20.27;3.80;;;;;;;;;;5117360;27;20463;-72
2021/03/29 00:50:45;;;;;;;6.20;1.77;;;;;;;;;;5117168;27;20859;-72
2021/03/29 00:53:13;;;;;;;4.43;2.33;;;;;;;;;;5116784;27;20531;-72
2021/03/29 00:55:41;;;;;;;7.43;2.10;;;;;;;;;;5116458;27;20451;-72
2021/03/29 00:58:08;;;;;;;4.17;2.10;;;;;;;;;;5116521;27;21143;-72
2021/03/29 01:00:37;;;;;;;6.13;2.10;;;;;;;;;;5116714;27;20460;-72
2021/03/29 01:03:06;;;;;;;6.73;2.43;;;;;;;;;;5116802;27;20487;-71
2021/03/29 01:05:40;;;;;;;9.83;3.10;;;;;;;;;;5116207;27;20486;-72
2021/03/29 01:08:08;;;;;;;7.03;2.27;;;;;;;;;;5117590;27;20460;-72
2021/03/29 01:10:36;;;;;;;5.80;2.30;;;;;;;;;;5120220;27;20458;-73
2021/03/29 01:13:08;;;;;;;10.03;2.20;;;;;;;;;;5119680;27;20469;-72
2021/03/29 01:15:37;;;;;;;11.27;2.77;;;;;;;;;;5120156;27;20439;-72
2021/03/29 01:18:05;;;;;;;11.53;2.37;;;;;;;;;;5120420;27;20461;-73
2021/03/29 01:20:45;;;;;;;6.57;2.37;;;;;;;;;;5119972;27;20454;-72
2021/03/29 01:23:14;;;;;;;5.87;2.00;;;;;;;;;;5124518;27;20822;-72
2021/03/29 01:25:45;;;;;;;7.33;2.50;;;;;;;;;;5141903;27;20449;-72
2021/03/29 01:28:14;;;;;;;6.23;2.37;;;;;;;;;;5140860;27;20453;-72
2021/03/29 01:30:45;;;;;;;11.27;2.57;;;;;;;;;;5138329;27;20457;-72
2021/03/29 01:33:12;;;;;;;9.47;2.83;;;;;;;;;;5138643;27;20454;-72
2021/03/29 01:35:41;;;;;;;4.33;1.90;;;;;;;;;;5140233;27;20514;-71
2021/03/29 01:38:09;;;;;;;7.60;2.60;;;;;;;;;;5140067;27;20521;-72
2021/03/29 01:40:37;;;;;;;5.13;2.20;;;;;;;;;;5139631;27;20456;-73
2021/03/29 01:43:06;;;;;;;7.43;2.10;;;;;;;;;;5140556;27;20497;-72
2021/03/29 01:45:34;;;;;;;2.63;1.40;;;;;;;;;;5121081;27;20458;-72
2021/03/29 01:48:01;;;;;;;10.77;2.30;;;;;;;;;;5120420;27;20448;-72
2021/03/29 01:50:29;;;;;;;3.10;2.07;;;;;;;;;;5121106;27;20512;-72
2021/03/29 01:52:57;;;;;;;7.33;1.83;;;;;;;;;;5119042;27;20455;-72
2021/03/29 01:55:24;;;;;;;4.93;2.30;;;;;;;;;;5119829;27;20451;-72
2021/03/29 01:57:51;;;;;;;6.33;1.87;;;;;;;;;;5119499;27;20451;-73
2021/03/29 02:00:22;;;;;;;7.50;2.47;;;;;;;;;;5118639;27;20470;-72
2021/03/29 02:02:50;;;;;;;7.87;2.60;;;;;;;;;;5120109;27;20482;-72
2021/03/29 02:05:18;;;;;;;6.43;2.33;;;;;;;;;;5118524;27;20466;-72
2021/03/29 02:07:46;;;;;;;9.60;2.60;;;;;;;;;;5119513;27;20451;-72
2021/03/29 02:10:15;;;;;;;7.90;2.20;;;;;;;;;;5143477;27;20445;-72
2021/03/29 02:12:45;;;;;;;8.37;1.83;;;;;;;;;;5160130;27;20469;-72
2021/03/29 02:15:16;;;;;;;4.97;2.20;;;;;;;;;;5160442;27;20470;-72
2021/03/29 02:17:45;;;;;;;11.70;2.80;;;;;;;;;;5159927;27;20506;-72
2021/03/29 02:20:14;;;;;;;6.10;2.27;;;;;;;;;;5160599;27;20473;-72
2021/03/29 02:22:43;;;;;;;6.97;3.17;;;;;;;;;;5160300;27;20485;-72
2021/03/29 02:25:11;;;;;;;6.27;2.60;;;;;;;;;;5159335;27;20716;-72
2021/03/29 02:27:38;;;;;;;3.70;1.93;;;;;;;;;;5142650;27;20525;-72
2021/03/29 02:30:10;;;;;;;9.53;3.60;;;;;;;;;;5138744;27;20461;-71
2021/03/29 02:32:39;;;;;;;5.60;1.90;;;;;;;;;;5147156;27;20458;-72
2021/03/29 02:35:07;;;;;;;6.63;2.63;;;;;;;;;;5138874;27;20873;-72
2021/03/29 02:37:35;;;;;;;8.47;2.97;;;;;;;;;;5138763;27;20450;-72
2021/03/29 02:40:02;;;;;;;5.40;2.20;;;;;;;;;;5140183;27;20886;-72
2021/03/29 02:42:30;;;;;;;4.70;2.40;;;;;;;;;;5139403;27;20492;-72
2021/03/29 02:44:57;;;;;;;7.47;3.10;;;;;;;;;;5139204;27;20450;-72
2021/03/29 02:47:24;;;;;;;8.80;3.20;;;;;;;;;;5139613;27;20561;-72
2021/03/29 02:49:51;;;;;;;9.97;2.13;;;;;;;;;;5143834;27;20475;-72
2021/03/29 02:52:18;;;;;;;6.40;3.13;;;;;;;;;;5159287;27;20881;-72
2021/03/29 02:54:48;;;;;;;5.50;2.37;;;;;;;;;;5152223;27;20533;-72
2021/03/29 02:57:16;;;;;;;8.53;3.63;;;;;;;;;;5118646;27;20481;-72
2021/03/29 02:59:44;;;;;;;6.20;3.07;;;;;;;;;;5123780;27;20482;-72
2021/03/29 03:02:12;;;;;;;5.03;2.17;;;;;;;;;;5118756;27;20487;-72
2021/03/29 03:04:39;;;;;;;3.80;2.00;;;;;;;;;;5118964;27;20520;-72
2021/03/29 03:07:06;;;;;;;10.80;3.20;;;;;;;;;;5122972;27;20462;-72
2021/03/29 03:09:34;;;;;;;7.43;3.17;;;;;;;;;;5119418;27;20502;-72
2021/03/29 03:12:05;;;;;;;6.40;2.97;;;;;;;;;;5118404;27;20883;-72
2021/03/29 03:14:33;;;;;;;7.90;2.90;;;;;;;;;;5118560;27;20747;-72
2021/03/29 03:17:00;;;;;;;9.70;2.47;;;;;;;;;;5134280;27;20470;-72
2021/03/29 03:19:27;;;;;;;4.10;2.07;;;;;;;;;;5138598;27;20523;-72
2021/03/29 03:21:54;;;;;;;10.03;2.87;;;;;;;;;;5136184;27;20541;-73
2021/03/29 03:24:32;;;;;;;7.70;2.87;;;;;;;;;;5138669;27;20511;-72
2021/03/29 03:27:01;;;;;;;5.07;2.53;;;;;;;;;;5137641;27;20485;-72
2021/03/29 03:29:29;;;;;;;6.20;2.30;;;;;;;;;;5139351;27;20746;-73
2021/03/29 03:31:56;;;;;;;6.23;2.30;;;;;;;;;;5136989;27;20450;-73
2021/03/29 03:34:26;;;;;;;8.67;3.10;;;;;;;;;;5138680;27;20515;-72
2021/03/29 03:36:55;;;;;;;6.37;3.03;;;;;;;;;;5137465;27;20472;-72
2021/03/29 03:39:22;;;;;;;6.87;2.20;;;;;;;;;;5138708;27;20461;-73
2021/03/29 03:41:49;;;;;;;6.97;2.80;;;;;;;;;;5138586;27;20489;-73
2021/03/29 03:44:17;;;;;;;5.70;2.57;;;;;;;;;;5138476;27;20438;-72
2021/03/29 03:46:45;;;;;;;9.90;2.40;;;;;;;;;;5138271;27;20862;-72
2021/03/29 03:49:14;;;;;;;8.40;2.50;;;;;;;;;;5139092;27;20446;-72
2021/03/29 03:51:44;;;;;;;3.80;1.90;;;;;;;;;;5144940;27;20518;-72
2021/03/29 03:54:13;;;;;;;6.50;1.77;;;;;;;;;;5130230;27;20450;-72
2021/03/29 03:56:41;;;;;;;5.13;1.93;;;;;;;;;;5128841;27;20447;-72
2021/03/29 03:59:09;;;;;;;4.73;2.50;;;;;;;;;;5135329;27;20484;-72
2021/03/29 04:01:42;;;;;;;6.70;2.37;;;;;;;;;;5118662;27;20486;-72
2021/03/29 04:04:10;;;;;;;12.77;2.40;;;;;;;;;;5121195;27;20466;-72
2021/03/29 04:06:38;;;;;;;6.13;2.40;;;;;;;;;;5128087;27;20871;-72
2021/03/29 04:09:09;;;;;;;4.83;2.00;;;;;;;;;;5138479;27;20473;-73
2021/03/29 04:11:37;;;;;;;5.27;2.20;;;;;;;;;;5135472;27;20787;-71
2021/03/29 04:14:05;;;;;;;5.20;2.03;;;;;;;;;;5129755;27;20458;-72
2021/03/29 04:16:33;;;;;;;6.87;2.47;;;;;;;;;;5138694;27;20866;-72
2021/03/29 04:19:00;;;;;;;9.80;2.60;;;;;;;;;;5132789;27;20468;-72
2021/03/29 04:21:29;;;;;;;7.10;2.40;;;;;;;;;;5129324;27;20563;-71
2021/03/29 04:23:56;;;;;;;10.83;2.90;;;;;;;;;;5123968;27;20480;-71
2021/03/29 04:26:26;;;;;;;7.10;2.30;;;;;;;;;;5127842;27;20447;-72
2021/03/29 04:28:53;;;;;;;6.23;2.90;;;;;;;;;;5123581;27;20753;-71
2021/03/29 04:31:21;;;;;;;8.33;2.97;;;;;;;;;;5118173;27;20447;-72
2021/03/29 04:33:48;;;;;;;6.47;2.37;;;;;;;;;;5117367;27;20474;-71
2021/03/29 04:36:15;;;;;;;5.50;2.03;;;;;;;;;;5118189;27;20889;-72
2021/03/29 04:38:44;;;;;;;8.03;2.50;;;;;;;;;;5118431;27;20459;-72
2021/03/29 04:41:13;;;;;;;5.87;2.27;;;;;;;;;;5117280;27;20459;-72
2021/03/29 04:43:40;;;;;;;4.83;2.60;;;;;;;;;;5126592;27;20455;-71
2021/03/29 04:46:07;;;;;;;6.50;2.07;;;;;;;;;;5124810;27;20450;-71
2021/03/29 04:48:37;;;;;;;10.07;2.40;;;;;;;;;;5145723;27;20444;-72
2021/03/29 04:51:04;;;;;;;6.00;2.00;;;;;;;;;;5128973;27;20545;-73
2021/03/29 04:53:31;;;;;;;6.70;1.97;;;;;;;;;;5133895;27;20472;-72
2021/03/29 04:56:02;;;;;;;8.30;2.10;;;;;;;;;;5137138;27;20740;-72
2021/03/29 04:58:29;;;;;;;3.97;1.73;;;;;;;;;;5120499;27;20471;-72
2021/03/29 05:00:56;;;;;;;7.93;2.10;;;;;;;;;;5141933;27;20467;-72
2021/03/29 05:03:23;;;;;;;4.60;1.67;;;;;;;;;;5141252;27;20486;-72
2021/03/29 05:05:50;;;;;;;4.63;2.03;;;;;;;;;;5126058;27;20805;-72
2021/03/29 05:08:18;;;;;;;3.87;1.67;;;;;;;;;;5121038;27;20776;-72
2021/03/29 05:10:45;;;;;;;4.77;2.10;;;;;;;;;;5120348;27;20512;-72
2021/03/29 05:13:13;;;;;;;6.50;2.43;;;;;;;;;;5137281;27;20838;-72
2021/03/29 05:15:40;;;;;;;6.40;3.43;;;;;;;;;;5160262;27;20876;-72
2021/03/29 05:18:07;;;;;;;7.23;2.60;;;;;;;;;;5159386;27;20456;-72
2021/03/29 05:20:35;;;;;;;10.13;3.17;;;;;;;;;;5159532;27;20507;-72
2021/03/29 05:23:02;;;;;;;5.10;1.73;;;;;;;;;;5159609;27;20591;-72
2021/03/29 05:25:29;;;;;;;6.30;2.00;;;;;;;;;;5160097;27;20715;-73
2021/03/29 05:27:56;;;;;;;8.30;2.93;;;;;;;;;;5146548;27;20458;-72
2021/03/29 05:30:27;;;;;;;6.00;2.40;;;;;;;;;;5139553;27;20449;-72
2021/03/29 05:32:54;;;;;;;7.93;2.87;;;;;;;;;;5134297;27;20471;-73
2021/03/29 05:35:21;;;;;;;7.43;2.77;;;;;;;;;;5119302;27;20519;-73
2021/03/29 05:37:48;;;;;;;8.30;3.27;;;;;;;;;;5124425;27;20443;-72
2021/03/29 05:40:17;;;;;;;8.00;3.20;;;;;;;;;;5140296;27;20439;-72
2021/03/29 05:42:44;;;;;;;7.90;2.90;;;;;;;;;;5139177;27;20492;-72
2021/03/29 05:45:12;;;;;;;8.53;3.13;;;;;;;;;;5140061;27;20450;-73
2021/03/29 05:47:42;;;;;;;14.73;2.97;;;;;;;;;;5140049;27;20525;-72
2021/03/29 05:50:11;;;;;;;11.43;3.30;;;;;;;;;;5139522;27;20464;-72
2021/03/29 05:52:39;;;;;;;5.67;3.17;;;;;;;;;;5138282;27;21263;-72
2021/03/29 05:55:10;;;;;;;8.30;3.70;;;;;;;;;;5140125;27;20484;-72
2021/03/29 05:57:42;;;;;;;8.93;3.60;;;;;;;;;;5132424;27;20600;-72
2021/03/29 06:00:27;;;;;;;10.33;5.07;;;;;;;;;;5126963;27;20470;-72
2021/03/29 06:02:55;;;;;;;8.80;3.67;;;;;;;;;;5120015;27;20491;-72
2021/03/29 06:05:33;;;;;;;8.67;3.47;;;;;;;;;;5140421;27;20453;-72
2021/03/29 06:08:00;;;;;;;5.47;2.57;;;;;;;;;;5118642;27;20485;-72
2021/03/29 06:10:36;;;;;;;8.90;2.90;;;;;;;;;;5118511;27;20467;-72
2021/03/29 06:13:17;;;;;;;5.33;2.70;;;;;;;;;;5135878;27;20888;-72
2021/03/29 06:15:48;;;;;;;11.20;3.77;;;;;;;;;;5127842;27;20445;-73
2021/03/29 06:18:19;;;;;;;6.67;3.13;;;;;;;;;;5125046;27;20469;-73
2021/03/29 06:21:02;;;;;;;6.40;3.30;;;;;;;;;;5124494;27;20438;-73
2021/03/29 06:23:33;;;;;;;8.70;3.47;;;;;;;;;;5134887;27;20534;-72
2021/03/29 06:26:22;;;;;;;9.90;3.47;;;;;;;;;;5138556;27;20446;-72
2021/03/29 06:28:49;;;;;;;7.07;3.60;;;;;;;;;;5139320;27;20462;-73
2021/03/29 06:31:30;;;;;;;5.93;3.30;;;;;;;;;;5151735;27;20441;-72
2021/03/29 06:33:59;;;;;;;5.43;2.50;;;;;;;;;;5158370;27;20461;-72
2021/03/29 06:36:28;;;;;;;6.00;3.00;;;;;;;;;;5126026;27;20507;-72
2021/03/29 06:38:58;;;;;;;6.53;3.70;;;;;;;;;;5129871;27;20463;-73
2021/03/29 06:41:29;;;;;;;7.60;2.80;;;;;;;;;;5127583;27;20460;-73
2021/03/29 06:43:57;;;;;;;7.90;3.60;;;;;;;;;;5131492;27;20540;-72
2021/03/29 06:46:26;;;;;;;6.10;2.70;;;;;;;;;;5143004;27;20446;-71
2021/03/29 06:48:54;;;;;;;6.93;2.50;;;;;;;;;;5137852;27;20466;-72
2021/03/29 06:51:24;;;;;;;7.07;4.07;;;;;;;;;;5140370;27;20457;-72
2021/03/29 06:53:58;;;;;;;8.00;3.07;;;;;;;;;;5135093;27;20525;-71
2021/03/29 06:56:34;;;;;;;9.80;3.20;;;;;;;;;;5136686;27;20534;-72
2021/03/29 06:59:09;;;;;;;6.93;3.80;;;;;;;;;;5137246;27;20442;-72
2021/03/29 07:01:40;;;;;;;6.23;3.00;;;;;;;;;;5137675;27;20477;-73
2021/03/29 07:04:10;;;;;;;5.50;3.30;;;;;;;;;;5128275;27;20551;-72
2021/03/29 07:06:44;;;;;;;9.43;2.60;;;;;;;;;;5134171;27;20454;-72
2021/03/29 07:09:12;;;;;;;5.90;2.60;;;;;;;;;;5138112;27;20461;-72
2021/03/29 07:11:40;;;;;;;8.70;3.43;;;;;;;;;;5137585;27;21098;-72
2021/03/29 07:14:08;;;;;;;9.13;5.93;;;;;;;;;;5118724;27;20560;-72
2021/03/29 07:16:35;;;;;;;15.37;3.23;;;;;;;;;;5134341;27;20446;-72
2021/03/29 07:19:03;;;;;;;10.27;2.20;;;;;;;;;;5159186;27;20783;-72
2021/03/29 07:21:30;;;;;;;4.70;2.90;;;;;;;;;;5157787;27;20861;-72
2021/03/29 07:24:02;;;;;;;6.07;2.90;;;;;;;;;;5158982;27;21022;-72
2021/03/29 07:26:34;;;;;;;7.40;3.00;;;;;;;;;;5159542;27;20445;-72
2021/03/29 07:29:16;;;;;;;9.60;3.53;;;;;;;;;;5158808;27;20489;-72
2021/03/29 07:31:47;;;;;;;8.10;2.77;;;;;;;;;;5158195;27;20456;-72
2021/03/29 07:34:15;;;;;;;11.10;2.70;;;;;;;;;;5158907;27;20734;-72
2021/03/29 07:36:43;;;;;;;5.13;2.30;;;;;;;;;;5158227;27;20453;-72
2021/03/29 07:39:12;;;;;;;7.73;2.77;;;;;;;;;;5158576;27;20447;-73
2021/03/29 07:41:40;;;;;;;13.23;3.40;;;;;;;;;;5156349;27;20583;-73
2021/03/29 07:44:11;;;;;;;8.03;2.83;;;;;;;;;;5158895;27;20532;-72
2021/03/29 07:46:38;;;;;;;7.70;3.40;;;;;;;;;;5158209;27;20916;-72
2021/03/29 07:49:05;;;;;;;6.83;2.93;;;;;;;;;;5155778;27;20474;-72
2021/03/29 07:51:33;;;;;;;7.47;2.30;;;;;;;;;;5140506;27;20455;-72
2021/03/29 07:54:01;;;;;;;4.97;2.40;;;;;;;;;;5116556;27;20451;-71
2021/03/29 07:56:41;;;;;;;7.10;2.73;;;;;;;;;;5116516;27;20462;-71
2021/03/29 07:59:09;;;;;;;6.00;2.67;;;;;;;;;;5116597;27;20446;-71
2021/03/29 08:01:55;;;;;;;5.07;3.23;;;;;;;;;;5135526;27;20442;-73
2021/03/29 08:04:37;;;;;;;7.23;3.23;;;;;;;;;;5128244;27;20529;-72
2021/03/29 08:07:04;;;;;;;8.20;3.00;;;;;;;;;;5135645;27;20885;-71
2021/03/29 08:09:43;;;;;;;5.93;2.33;;;;;;;;;;5137545;27;20526;-72
2021/03/29 08:12:24;;;;;;;4.70;1.93;;;;;;;;;;5136832;27;20548;-73
2021/03/29 08:14:54;;;;;;;8.20;2.53;;;;;;;;;;5135938;27;20600;-72
2021/03/29 08:17:49;;;;;;;8.83;3.40;;;;;;;;;;5124248;27;20519;-72
2021/03/29 08:20:19;;;;;;;7.40;2.70;;;;;;;;;;5132258;27;20465;-72
2021/03/29 08:23:04;;;;;;;7.27;2.60;;;;;;;;;;5128529;27;20601;-72
2021/03/29 08:25:32;;;;;;;3.60;1.93;;;;;;;;;;5138301;27;20454;-71
2021/03/29 08:28:00;;;;;;;18.03;6.63;;;;;;;;;;5126348;27;20459;-71
2021/03/29 08:30:27;;;;;;;14.40;4.17;;;;;;;;;;5128542;27;20470;-70
2021/03/29 08:33:09;;;;;;;8.27;3.93;;;;;;;;;;5119195;27;20528;-71
2021/03/29 08:35:38;;;;;;;6.13;3.73;;;;;;;;;;5120049;27;20541;-72
2021/03/29 08:38:09;;;;;;;7.47;3.53;;;;;;;;;;5128959;27;21172;-72
2021/03/29 08:40:51;;;;;;;9.50;3.87;;;;;;;;;;5156672;27;20782;-70
2021/03/29 08:43:22;;;;;;;9.57;4.20;;;;;;;;;;5152917;27;20474;-72
2021/03/29 08:45:50;;;;;;;9.63;3.10;;;;;;;;;;5118898;27;20461;-70
2021/03/29 08:48:17;;;;;;;6.57;2.97;;;;;;;;;;5119008;27;20479;-71
2021/03/29 08:50:47;;;;;;;9.77;3.50;;;;;;;;;;5119160;27;20455;-72
2021/03/29 08:53:15;;;;;;;3.17;1.87;;;;;;;;;;5134889;27;20469;-71
2021/03/29 08:55:45;;;;;;;8.30;4.23;;;;;;;;;;5139678;27;20483;-72
2021/03/29 08:58:13;;;;;;;9.83;3.27;;;;;;;;;;5137390;27;20458;-72
2021/03/29 09:00:42;;;;;;;10.63;3.07;;;;;;;;;;5126545;27;20462;-71
2021/03/29 09:03:18;;;;;;;9.20;2.77;;;;;;;;;;5139010;27;20485;-71
2021/03/29 09:05:48;;;;;;;5.87;2.57;;;;;;;;;;5138223;27;20492;-72
2021/03/29 09:08:18;;;;;;;7.80;4.10;;;;;;;;;;5121300;27;20473;-71
2021/03/29 09:10:48;;;;;;;5.50;3.77;;;;;;;;;;5130249;27;20518;-71
2021/03/29 09:13:17;;;;;;;12.33;4.40;;;;;;;;;;5135157;27;20534;-72
2021/03/29 09:15:48;;;;;;;6.10;2.70;;;;;;;;;;5138832;27;20449;-71
2021/03/29 09:18:22;;;;;;;4.90;2.67;;;;;;;;;;5123876;27;20465;-73
2021/03/29 09:21:03;;;;;;;9.50;3.03;;;;;;;;;;5138636;27;20486;-73
2021/03/29 09:23:36;;;;;;;5.03;3.53;;;;;;;;;;5137918;27;20521;-72
2021/03/29 09:26:09;;;;;;;6.00;2.37;;;;;;;;;;5139004;27;20473;-72
2021/03/29 09:28:42;;;;;;;8.47;3.37;;;;;;;;;;5138447;27;20807;-72
2021/03/29 09:31:19;;;;;;;8.27;3.77;;;;;;;;;;5139577;27;20869;-71
2021/03/29 09:33:50;;;;;;;8.00;4.27;;;;;;;;;;5139810;27;20453;-71
2021/03/29 09:36:19;;;;;;;6.00;3.00;;;;;;;;;;5140238;27;20451;-71
2021/03/29 09:38:59;;;;;;;10.07;3.70;;;;;;;;;;5139474;27;20431;-72
2021/03/29 09:41:30;;;;;;;3.67;2.40;;;;;;;;;;5139710;27;20450;-70
2021/03/29 09:43:58;;;;;;;9.80;3.60;;;;;;;;;;5139128;27;20456;-71
2021/03/29 09:46:28;;;;;;;6.00;2.80;;;;;;;;;;5117918;27;20447;-72
2021/03/29 09:49:04;;;;;;;8.67;3.10;;;;;;;;;;5118025;27;20462;-72
2021/03/29 09:51:38;;;;;;;6.53;2.73;;;;;;;;;;5117992;27;20450;-72
2021/03/29 09:54:21;;;;;;;5.17;3.27;;;;;;;;;;5118360;27;20455;-73
2021/03/29 09:56:49;;;;;;;7.83;2.73;;;;;;;;;;5115632;27;20884;-73
2021/03/29 09:59:25;;;;;;;6.03;2.40;;;;;;;;;;5117823;27;20907;-72
2021/03/29 10:01:58;;;;;;;7.70;2.03;;;;;;;;;;5134935;27;20486;-72
2021/03/29 10:04:29;;;;;;;7.80;3.33;;;;;;;;;;5137496;27;20904;-73
2021/03/29 10:06:57;;;;;;;4.90;2.60;;;;;;;;;;5138428;27;20453;-72
2021/03/29 10:09:40;;;;;;;4.63;2.40;;;;;;;;;;5137795;27;20451;-71
2021/03/29 10:12:14;;;;;;;5.20;2.40;;;;;;;;;;5137701;27;20934;-72
2021/03/29 10:14:48;;;;;;;7.60;3.80;;;;;;;;;;5117658;27;20546;-71
2021/03/29 10:17:26;;;;;;;9.10;3.50;;;;;;;;;;5120455;27;20473;-74
2021/03/29 10:20:05;;;;;;;7.20;2.93;;;;;;;;;;5135332;27;20462;-71
2021/03/29 10:22:33;;;;;;;4.13;2.40;;;;;;;;;;5138092;27;20566;-69
2021/03/29 10:25:03;;;;;;;8.47;2.77;;;;;;;;;;5137455;27;20457;-71
2021/03/29 10:27:44;;;;;;;5.73;2.33;;;;;;;;;;5137941;27;20862;-70
2021/03/29 10:30:34;;;;;;;4.60;2.93;;;;;;;;;;5137539;27;20454;-72
2021/03/29 10:33:04;;;;;;;9.80;4.70;;;;;;;;;;5131181;27;20478;-73
2021/03/29 10:35:33;;;;;;;7.03;2.70;;;;;;;;;;5132720;27;20511;-72
2021/03/29 10:38:02;;;;;;;4.47;3.17;;;;;;;;;;5133167;27;20587;-72
2021/03/29 10:40:29;;;;;;;6.20;3.17;;;;;;;;;;5121623;27;20462;-72
2021/03/29 10:43:01;;;;;;;5.80;2.90;;;;;;;;;;5136878;27;20483;-72
2021/03/29 10:45:34;;;;;;;5.23;2.10;;;;;;;;;;5131810;27;20514;-73
2021/03/29 10:48:06;;;;;;;7.07;3.30;;;;;;;;;;5131274;27;20470;-70
2021/03/29 10:50:35;;;;;;;4.50;2.70;;;;;;;;;;5117080;27;20452;-72
2021/03/29 10:53:03;;;;;;;4.80;2.63;;;;;;;;;;5124679;27;20444;-72
2021/03/29 10:55:36;;;;;;;5.07;1.70;;;;;;;;;;5126305;27;20499;-72
2021/03/29 10:58:04;;;;;;;6.83;2.67;;;;;;;;;;5131278;27;20454;-73
2021/03/29 11:00:34;;;;;;;3.60;2.53;;;;;;;;;;5129227;27;20470;-74
2021/03/29 11:03:01;;;;;;;4.03;2.80;;;;;;;;;;5129238;27;20495;-73
2021/03/29 11:05:34;;;;;;;3.60;2.30;;;;;;;;;;5126278;27;20442;-74
2021/03/29 11:08:06;;;;;;;9.83;3.77;;;;;;;;;;5119079;27;20457;-74
2021/03/29 11:10:37;;;;;;;9.10;3.40;;;;;;;;;;5132518;27;20460;-72
2021/03/29 11:13:06;;;;;;;4.83;2.60;;;;;;;;;;5121074;27;20461;-75
2021/03/29 11:15:42;;;;;;;7.10;2.87;;;;;;;;;;5132041;27;20447;-73
2021/03/29 11:18:11;;;;;;;8.00;3.07;;;;;;;;;;5135168;27;20484;-73
2021/03/29 11:20:44;;;;;;;5.80;2.40;;;;;;;;;;5122435;27;20508;-73
2021/03/29 11:23:12;;;;;;;3.50;2.30;;;;;;;;;;5133976;27;20530;-72
2021/03/29 11:25:40;;;;;;;5.10;2.77;;;;;;;;;;5125915;27;20912;-72
2021/03/29 11:28:08;;;;;;;4.70;2.20;;;;;;;;;;5128374;27;20830;-73
2021/03/29 11:33:34;;;;;;;4.80;2.40;;;;;;;;;;5103613;27;20447;-73
2021/03/29 11:36:02;;;;;;;7.67;3.50;;;;;;;;;;5115574;27;20451;-71
2021/03/29 11:38:37;;;;;;;8.90;3.33;;;;;;;;;;5128595;27;20447;-73
2021/03/29 11:41:06;;;;;;;8.80;3.37;;;;;;;;;;5136745;27;20824;-73
2021/03/29 11:43:37;;;;;;;5.83;3.00;;;;;;;;;;5135643;27;20894;-72
2021/03/29 11:46:05;;;;;;;4.60;2.97;;;;;;;;;;5136095;27;20442;-72
2021/03/29 11:48:34;;;;;;;3.57;2.40;;;;;;;;;;5135720;27;20447;-72
2021/03/29 11:51:03;;;;;;;5.00;2.60;;;;;;;;;;5136496;27;20831;-72
2021/03/29 11:53:31;;;;;;;6.00;2.37;;;;;;;;;;5136219;27;20461;-72
2021/03/29 11:55:59;;;;;;;5.93;2.60;;;;;;;;;;5137615;27;20942;-72
2021/03/29 11:58:27;;;;;;;4.60;2.40;;;;;;;;;;5124908;27;20450;-72
2021/03/29 12:00:56;;;;;;;6.33;3.00;;;;;;;;;;5126021;27;20565;-72
2021/03/29 12:03:32;;;;;;;3.50;2.07;;;;;;;;;;5096834;27;20487;-73
2021/03/29 12:06:03;;;;;;;4.47;2.63;;;;;;;;;;5102574;28;20885;-73
2021/03/29 12:08:37;;;;;;;4.80;2.20;;;;;;;;;;5111353;27;20456;-73
2021/03/29 12:13:51;;;;;;;6.33;2.63;;;;;;;;;;5099535;28;20437;-71
2021/03/29 12:16:23;;;;;;;7.60;3.67;;;;;;;;;;5114092;27;20439;-72
2021/03/29 12:18:55;;;;;;;6.90;2.50;;;;;;;;;;5115035;27;20462;-74
2021/03/29 12:21:27;;;;;;;5.97;2.90;;;;;;;;;;5115403;27;20546;-74
2021/03/29 12:23:59;;;;;;;5.03;2.33;;;;;;;;;;5115056;27;20483;-73
2021/03/29 12:27:00;;;;;;;5.20;2.23;;;;;;;;;;5115480;27;20452;-74
2021/03/29 12:29:37;;;;;;;6.07;2.50;;;;;;;;;;5110181;27;20501;-73
2021/03/29 12:32:07;;;;;;;4.60;2.60;;;;;;;;;;5113233;28;21283;-73
2021/03/29 12:34:37;;;;;;;7.20;2.70;;;;;;;;;;5098226;28;20528;-73
2021/03/29 12:37:04;;;;;;;4.67;2.43;;;;;;;;;;5109849;27;20496;-73
2021/03/29 12:39:36;;;;;;;3.93;2.67;;;;;;;;;;5111692;27;20455;-73
2021/03/29 12:42:06;;;;;;;6.50;2.67;;;;;;;;;;5114586;27;20558;-72
2021/03/29 12:44:34;;;;;;;6.13;2.70;;;;;;;;;;5108437;27;20462;-72
2021/03/29 12:47:35;;;;;;;4.57;2.33;;;;;;;;;;5115408;27;20450;-73
2021/03/29 12:50:10;;;;;;;8.47;3.67;;;;;;;;;;5107552;27;20463;-73
2021/03/29 12:52:40;;;;;;;8.33;3.00;;;;;;;;;;5111231;27;20875;-74
2021/03/29 12:55:11;;;;;;;4.70;2.80;;;;;;;;;;5095138;28;20517;-73
2021/03/29 12:57:39;;;;;;;5.97;2.80;;;;;;;;;;5094228;28;21047;-72
2021/03/29 13:00:09;;;;;;;7.70;3.10;;;;;;;;;;5108164;27;20443;-72
2021/03/29 13:02:36;;;;;;;4.70;2.70;;;;;;;;;;5101754;28;20479;-72
2021/03/29 13:05:05;;;;;;;6.70;2.40;;;;;;;;;;5111751;27;20734;-72
2021/03/29 13:07:39;;;;;;;4.57;2.30;;;;;;;;;;5118046;27;20448;-72
2021/03/29 13:10:13;;;;;;;5.40;2.53;;;;;;;;;;5117204;27;20466;-72
2021/03/29 13:12:41;;;;;;;4.30;2.40;;;;;;;;;;5119074;27;20850;-72
2021/03/29 13:15:13;;;;;;;6.57;2.77;;;;;;;;;;5118532;27;20467;-72
2021/03/29 13:17:40;;;;;;;7.00;3.03;;;;;;;;;;5118122;27;20450;-72
2021/03/29 13:20:09;;;;;;;7.80;3.27;;;;;;;;;;5105046;28;20456;-72
2021/03/29 13:22:37;;;;;;;5.60;2.73;;;;;;;;;;5131356;27;20966;-72
2021/03/29 13:25:05;;;;;;;5.00;2.70;;;;;;;;;;5108744;27;20486;-72
2021/03/29 13:27:35;;;;;;;4.33;2.03;;;;;;;;;;5103451;28;20455;-72
2021/03/29 13:30:05;;;;;;;7.07;3.27;;;;;;;;;;5104512;27;20494;-72
2021/03/29 13:32:32;;;;;;;3.60;2.33;;;;;;;;;;5111903;28;20450;-72
2021/03/29 13:35:01;;;;;;;3.97;2.30;;;;;;;;;;5107844;27;20515;-72
2021/03/29 13:37:29;;;;;;;3.80;2.57;;;;;;;;;;5117985;27;20450;-72
2021/03/29 13:39:59;;;;;;;5.87;2.60;;;;;;;;;;5117769;27;20443;-72
2021/03/29 13:42:26;;;;;;;3.60;2.20;;;;;;;;;;5118429;27;20486;-72
2021/03/29 13:44:53;;;;;;;6.10;2.70;;;;;;;;;;5116097;27;20718;-72
2021/03/29 13:47:23;;;;;;;6.20;3.13;;;;;;;;;;5108691;27;20470;-72
2021/03/29 13:49:50;;;;;;;3.90;2.50;;;;;;;;;;5098283;28;21077;-72
2021/03/29 13:52:18;;;;;;;5.23;3.20;;;;;;;;;;5097955;28;20475;-72
2021/03/29 13:54:46;;;;;;;6.77;3.10;;;;;;;;;;5097686;28;20460;-72
2021/03/29 13:57:13;;;;;;;4.83;2.30;;;;;;;;;;5104893;28;20956;-72
2021/03/29 13:59:41;;;;;;;9.87;3.67;;;;;;;;;;5118049;27;20952;-72
2021/03/29 14:02:09;;;;;;;5.40;3.03;;;;;;;;;;5116050;27;20487;-73
2021/03/29 14:04:42;;;;;;;4.67;3.10;;;;;;;;;;5105862;27;20454;-72
2021/03/29 14:07:09;;;;;;;4.97;3.00;;;;;;;;;;5111708;27;20689;-73
2021/03/29 14:09:42;;;;;;;7.60;3.00;;;;;;;;;;5116642;27;20810;-73
2021/03/29 14:12:10;;;;;;;7.10;2.80;;;;;;;;;;5112448;27;20772;-72
2021/03/29 14:14:38;;;;;;;5.33;2.63;;;;;;;;;;5107884;27;20452;-73
2021/03/29 14:17:08;;;;;;;4.77;3.07;;;;;;;;;;5099615;28;21040;-73
2021/03/29 14:19:47;;;;;;;7.33;3.10;;;;;;;;;;5109194;27;20828;-73
2021/03/29 14:22:26;;;;;;;5.73;3.13;;;;;;;;;;5104131;28;20766;-71
2021/03/29 14:24:53;;;;;;;4.90;2.93;;;;;;;;;;5107166;27;20501;-71
2021/03/29 14:27:27;;;;;;;4.57;2.77;;;;;;;;;;5113245;28;20732;-71
2021/03/29 14:30:06;;;;;;;2.90;2.17;;;;;;;;;;5099312;27;20912;-72
2021/03/29 14:32:42;;;;;;;6.40;2.80;;;;;;;;;;5096822;28;20495;-72
2021/03/29 14:35:17;;;;;;;4.67;2.30;;;;;;;;;;5109012;27;20753;-72
2021/03/29 14:40:46;;;;;;;4.63;3.20;;;;;;;;;;5109881;28;20442;-72
2021/03/29 14:43:30;;;;;;;4.73;3.30;;;;;;;;;;5115329;27;20516;-71
2021/03/29 14:45:58;;;;;;;2.00;1.50;;;;;;;;;;5096095;28;20864;-71
2021/03/29 14:48:29;;;;;;;8.13;3.63;;;;;;;;;;5105577;28;20735;-73
2021/03/29 14:50:57;;;;;;;5.13;2.50;;;;;;;;;;5100473;28;20860;-73
2021/03/29 14:53:24;;;;;;;6.10;3.00;;;;;;;;;;5112118;28;20455;-72
2021/03/29 14:55:51;;;;;;;4.00;2.30;;;;;;;;;;5111313;27;20528;-72
2021/03/29 14:58:19;;;;;;;4.23;2.87;;;;;;;;;;5111051;27;20904;-72
2021/03/29 15:00:46;;;;;;;4.57;3.27;;;;;;;;;;5098297;28;20459;-72
2021/03/29 15:03:18;;;;;;;5.30;3.33;;;;;;;;;;5095428;28;20915;-71
2021/03/29 15:05:50;;;;;;;7.13;3.60;;;;;;;;;;5101181;28;20447;-71
2021/03/29 15:08:19;;;;;;;5.17;3.30;;;;;;;;;;5115421;27;21026;-71
2021/03/29 15:10:47;;;;;;;5.23;3.03;;;;;;;;;;5107575;27;20468;-73